Toccoa Falls, Georgia
Current Conditions -  °F | °C
As of 6:55 PM on Monday 20 Oct 2014 (Local Time) from KTOC Reporting Station
Clear Clear  
Wind Chill: 64°   Ceiling: Unl
Heat Index: 64°   Visibility: 10mi
Dew Point: 52°   Wind: 6mph
Humidity: 64%   Direction: 230°SW
Pressure: 29.99"   Gusts: NA
Location:  34.5944°N, 83.3575°W
Report Text: KTOC 202255Z AUTO 23005KT 10SM CLR 18/11 A2999 RMK AO2 T01800111
Loading
Personal Weather Stations






























Interactive Weather Map
Tropical Storm Tracking
New forecast layout! Learn more

10-Day Weather Forecast

Advertisements
Track Severe Weather on mobile